createdAt,value
2022-12-24T00:01:18.742Z,11.50
2022-12-24T00:03:46.913Z,11.50
2022-12-24T00:06:17.200Z,11.50
2022-12-24T00:08:46.911Z,11.50
2022-12-24T00:11:15.276Z,11.40
2022-12-24T00:13:43.362Z,11.40
2022-12-24T00:16:11.837Z,11.40
2022-12-24T00:18:45.444Z,11.50
2022-12-24T00:21:15.270Z,11.50
2022-12-24T00:23:43.275Z,11.50
2022-12-24T00:26:13.012Z,11.50
2022-12-24T00:28:41.295Z,11.60
2022-12-24T00:31:10.531Z,11.60
2022-12-24T00:33:39.059Z,11.60
2022-12-24T00:36:07.630Z,11.60
2022-12-24T00:38:36.120Z,11.60
2022-12-24T00:41:05.680Z,11.60
2022-12-24T00:43:35.554Z,11.60
2022-12-24T00:46:03.687Z,11.60
2022-12-24T00:48:31.942Z,11.60
2022-12-24T00:51:00.255Z,11.70
2022-12-24T00:53:28.439Z,11.60
2022-12-24T00:55:57.211Z,11.60
2022-12-24T00:58:25.512Z,11.60
2022-12-24T01:00:55.375Z,11.60
2022-12-24T01:03:23.483Z,11.60
2022-12-24T01:05:51.566Z,11.50
2022-12-24T01:08:19.592Z,11.50
2022-12-24T01:10:47.954Z,11.50
2022-12-24T01:13:16.039Z,11.40
2022-12-24T01:15:44.434Z,11.40
2022-12-24T01:18:13.966Z,11.40
2022-12-24T01:20:42.600Z,11.40
2022-12-24T01:23:10.842Z,11.40
2022-12-24T01:25:38.918Z,11.40
2022-12-24T01:28:07.906Z,11.30
2022-12-24T01:30:35.992Z,11.30
2022-12-24T01:33:04.661Z,11.30
2022-12-24T01:35:34.146Z,11.20
2022-12-24T01:38:02.764Z,11.20
2022-12-24T01:40:48.583Z,11.20
2022-12-24T01:43:28.529Z,11.20
2022-12-24T01:45:57.775Z,11.20
2022-12-24T01:48:40.027Z,11.10
2022-12-24T01:51:15.905Z,11.20
2022-12-24T01:53:45.464Z,11.20
2022-12-24T01:56:13.881Z,11.10
2022-12-24T01:58:44.126Z,11.10
2022-12-24T02:01:12.249Z,11.20
2022-12-24T02:03:41.046Z,11.20
2022-12-24T02:06:15.150Z,11.10
2022-12-24T02:08:43.968Z,11.10
2022-12-24T02:11:13.323Z,11.10
2022-12-24T02:13:43.431Z,11.10
2022-12-24T02:16:15.227Z,11.10
2022-12-24T02:18:48.624Z,11.00
2022-12-24T02:21:34.618Z,11.00
2022-12-24T02:24:22.053Z,11.00
2022-12-24T02:27:04.178Z,10.90
2022-12-24T02:29:49.254Z,10.90
2022-12-24T02:32:22.316Z,10.90
2022-12-24T02:34:52.425Z,11.00
2022-12-24T02:37:23.136Z,11.00
2022-12-24T02:39:54.266Z,10.90
2022-12-24T02:42:25.169Z,10.90
2022-12-24T02:44:56.544Z,10.90
2022-12-24T02:47:26.869Z,10.90
2022-12-24T02:49:55.370Z,10.90
2022-12-24T02:52:30.863Z,10.90
2022-12-24T02:54:59.905Z,10.90
2022-12-24T02:57:31.676Z,10.90
2022-12-24T03:00:03.725Z,11.00
2022-12-24T03:02:42.303Z,11.00
2022-12-24T03:05:14.326Z,11.00
2022-12-24T03:07:46.158Z,11.00
2022-12-24T03:10:19.577Z,11.00
2022-12-24T03:12:50.135Z,10.90
2022-12-24T03:15:21.608Z,10.90
2022-12-24T03:17:51.014Z,10.90
2022-12-24T03:20:21.910Z,10.90
2022-12-24T03:22:50.660Z,11.00
2022-12-24T03:25:18.865Z,10.90
2022-12-24T03:28:02.256Z,10.90
2022-12-24T03:30:39.966Z,10.90
2022-12-24T03:33:09.798Z,10.90
2022-12-24T03:35:37.949Z,10.90
2022-12-24T03:38:06.449Z,10.90
2022-12-24T03:40:35.387Z,11.00
2022-12-24T03:43:03.527Z,11.00
2022-12-24T03:45:31.953Z,11.00
2022-12-24T03:48:02.662Z,11.00
2022-12-24T03:50:31.317Z,11.00
2022-12-24T03:52:59.415Z,11.00
2022-12-24T03:55:27.743Z,11.00
2022-12-24T03:57:55.928Z,11.00
2022-12-24T04:00:24.880Z,11.00
2022-12-24T04:02:53.602Z,11.00
2022-12-24T04:05:23.118Z,11.00
2022-12-24T04:07:51.224Z,11.00
2022-12-24T04:10:19.527Z,10.90
2022-12-24T04:12:48.294Z,10.90
2022-12-24T04:15:16.430Z,10.90
2022-12-24T04:17:44.880Z,11.00
2022-12-24T04:20:13.542Z,11.00
2022-12-24T04:22:43.510Z,11.00
2022-12-24T04:25:11.570Z,11.00
2022-12-24T04:27:40.468Z,11.00
2022-12-24T04:30:09.199Z,11.00
2022-12-24T04:32:37.712Z,11.00
2022-12-24T04:35:06.386Z,11.10
2022-12-24T04:37:35.309Z,11.10
2022-12-24T04:40:06.846Z,11.10
2022-12-24T04:42:35.209Z,11.10
2022-12-24T04:45:03.276Z,11.10
2022-12-24T04:47:31.834Z,11.10
2022-12-24T04:50:01.556Z,11.10
2022-12-24T04:52:31.485Z,11.00
2022-12-24T04:54:59.606Z,11.00
2022-12-24T04:57:32.620Z,11.00
2022-12-24T05:00:01.051Z,11.00
2022-12-24T05:02:31.456Z,11.00
2022-12-24T05:04:59.970Z,11.00
2022-12-24T05:07:28.040Z,10.90
2022-12-24T05:09:56.727Z,11.00
2022-12-24T05:12:24.886Z,10.90
2022-12-24T05:14:56.233Z,10.90
2022-12-24T05:17:24.347Z,11.00
2022-12-24T05:19:52.931Z,11.00
2022-12-24T05:22:38.674Z,11.00
2022-12-24T05:25:36.484Z,10.90
2022-12-24T05:28:04.623Z,11.00
2022-12-24T05:30:34.317Z,11.00
2022-12-24T05:33:02.417Z,11.00
2022-12-24T05:35:31.140Z,11.00
2022-12-24T05:37:59.418Z,11.00
2022-12-24T05:40:28.050Z,11.00
2022-12-24T05:42:56.156Z,11.00
2022-12-24T05:45:24.528Z,11.00
2022-12-24T05:47:54.573Z,11.00
2022-12-24T05:50:22.942Z,11.00
2022-12-24T05:53:06.009Z,10.90
2022-12-24T05:55:34.100Z,11.00
2022-12-24T05:58:02.734Z,11.00
2022-12-24T06:00:31.039Z,10.90
2022-12-24T06:03:01.024Z,10.90
2022-12-24T06:05:29.214Z,10.90
2022-12-24T06:07:57.591Z,10.90
2022-12-24T06:10:25.774Z,11.00
2022-12-24T06:12:54.314Z,11.00
2022-12-24T06:15:24.273Z,10.90
2022-12-24T06:17:53.172Z,10.90
2022-12-24T06:20:22.573Z,10.90
2022-12-24T06:22:51.183Z,10.90
2022-12-24T06:25:19.444Z,10.90
2022-12-24T06:27:48.236Z,10.90
2022-12-24T06:30:18.548Z,10.80
2022-12-24T06:32:47.500Z,10.90
2022-12-24T06:35:15.631Z,10.90
2022-12-24T06:37:45.274Z,10.80
2022-12-24T06:40:13.772Z,10.80
2022-12-24T06:42:42.137Z,10.80
2022-12-24T06:45:11.004Z,10.80
2022-12-24T06:47:39.107Z,10.80
2022-12-24T06:50:08.138Z,10.80
2022-12-24T06:52:36.283Z,10.70
2022-12-24T06:55:06.710Z,10.70
2022-12-24T06:57:35.122Z,10.80
2022-12-24T07:00:05.040Z,10.70
2022-12-24T07:02:33.363Z,10.60
2022-12-24T07:05:02.418Z,10.60
2022-12-24T07:07:30.654Z,10.60
2022-12-24T07:09:58.928Z,10.60
2022-12-24T07:12:29.312Z,10.60
2022-12-24T07:14:57.661Z,10.50
2022-12-24T07:17:27.584Z,10.50
2022-12-24T07:19:56.216Z,10.50
2022-12-24T07:22:25.011Z,10.60
2022-12-24T07:24:53.132Z,10.60
2022-12-24T07:27:21.696Z,10.50
2022-12-24T07:29:51.099Z,10.50
2022-12-24T07:32:20.785Z,10.60
2022-12-24T07:34:48.855Z,10.50
2022-12-24T07:37:18.468Z,10.60
2022-12-24T07:39:46.522Z,10.50
2022-12-24T07:42:14.996Z,10.50
2022-12-24T07:44:44.137Z,10.40
2022-12-24T07:47:14.328Z,10.40
2022-12-24T07:49:44.901Z,10.40
2022-12-24T07:52:13.298Z,10.40
2022-12-24T07:54:41.373Z,10.40
2022-12-24T07:57:09.539Z,10.40
2022-12-24T07:59:39.029Z,10.30
2022-12-24T08:02:11.088Z,10.30
2022-12-24T08:04:44.064Z,10.30
2022-12-24T08:07:12.403Z,10.20
2022-12-24T08:09:40.556Z,10.20
2022-12-24T08:12:08.823Z,10.20
2022-12-24T08:14:37.143Z,10.20
2022-12-24T08:17:05.475Z,10.20
2022-12-24T08:19:34.217Z,10.20
2022-12-24T08:22:04.646Z,10.30
2022-12-24T08:24:41.779Z,10.30
2022-12-24T08:27:10.947Z,10.30
2022-12-24T08:29:39.747Z,10.30
2022-12-24T08:32:08.075Z,10.20
2022-12-24T08:34:36.162Z,10.30
2022-12-24T08:37:06.028Z,10.30
2022-12-24T08:39:34.154Z,10.20
2022-12-24T08:42:02.971Z,10.30
2022-12-24T08:44:31.182Z,10.30
2022-12-24T08:46:59.508Z,10.30
2022-12-24T08:49:27.598Z,10.30
2022-12-24T08:51:56.067Z,10.30
2022-12-24T08:54:25.826Z,10.30
2022-12-24T08:56:54.166Z,10.40
2022-12-24T08:59:22.765Z,10.30
2022-12-24T09:01:52.146Z,10.30
2022-12-24T09:04:21.113Z,10.30
2022-12-24T09:06:49.252Z,10.30
2022-12-24T09:09:17.930Z,10.20
2022-12-24T09:11:49.422Z,10.30
2022-12-24T09:14:18.053Z,10.20
2022-12-24T09:16:46.210Z,10.30
2022-12-24T09:19:15.286Z,10.30
2022-12-24T09:21:43.559Z,10.30
2022-12-24T09:24:12.181Z,10.30
2022-12-24T09:26:41.367Z,10.20
2022-12-24T09:29:12.479Z,10.20
2022-12-24T09:31:40.577Z,10.30
2022-12-24T09:34:08.946Z,10.20
2022-12-24T09:36:37.395Z,10.20
2022-12-24T09:39:05.500Z,10.30
2022-12-24T09:41:39.124Z,10.20
2022-12-24T09:44:13.349Z,10.20
2022-12-24T09:46:44.811Z,10.30
2022-12-24T09:49:15.790Z,10.30
2022-12-24T09:51:46.425Z,10.30
2022-12-24T09:54:16.560Z,10.30
2022-12-24T09:56:46.699Z,10.30
2022-12-24T09:59:16.635Z,10.30
2022-12-24T10:01:46.625Z,10.40
2022-12-24T10:04:15.717Z,10.40
2022-12-24T10:06:50.075Z,10.30
2022-12-24T10:09:23.281Z,10.30
2022-12-24T10:11:53.546Z,10.40
2022-12-24T10:14:27.344Z,10.40
2022-12-24T10:17:01.387Z,10.40
2022-12-24T10:19:34.582Z,10.40
2022-12-24T10:22:09.220Z,10.50
2022-12-24T10:24:46.344Z,10.60
2022-12-24T10:27:20.508Z,10.60
2022-12-24T10:29:50.194Z,10.60
2022-12-24T10:32:22.861Z,10.60
2022-12-24T10:34:53.414Z,10.50
2022-12-24T10:37:24.948Z,10.50
2022-12-24T10:39:53.693Z,10.50
2022-12-24T10:42:23.035Z,10.40
2022-12-24T10:44:53.231Z,10.40
2022-12-24T10:47:23.584Z,10.40
2022-12-24T10:49:58.867Z,10.40
2022-12-24T10:52:29.912Z,10.60
2022-12-24T10:55:12.691Z,10.70
2022-12-24T10:57:41.437Z,10.70
2022-12-24T11:00:19.482Z,10.90
2022-12-24T11:02:50.003Z,11.00
2022-12-24T11:05:29.724Z,11.10
2022-12-24T11:08:01.301Z,11.30
2022-12-24T11:10:31.263Z,11.40
2022-12-24T11:13:27.875Z,11.30
2022-12-24T11:15:49.269Z,11.40
2022-12-24T11:18:19.417Z,11.50
2022-12-24T11:20:50.948Z,11.60
2022-12-24T11:23:19.154Z,11.60
2022-12-24T11:25:49.399Z,11.60
2022-12-24T11:28:21.007Z,11.70
2022-12-24T11:30:57.167Z,11.60
2022-12-24T11:33:27.072Z,11.70
2022-12-24T11:36:02.835Z,11.80
2022-12-24T11:38:32.747Z,11.90
2022-12-24T11:41:06.308Z,12.00
2022-12-24T11:43:48.065Z,12.10
2022-12-24T11:46:18.446Z,12.10
2022-12-24T11:48:48.407Z,12.10
2022-12-24T11:51:21.690Z,12.10
2022-12-24T11:53:51.130Z,12.10
2022-12-24T11:56:35.254Z,12.10
2022-12-24T11:59:08.583Z,12.10
2022-12-24T12:01:39.232Z,12.10
2022-12-24T12:04:12.566Z,12.20
2022-12-24T12:06:42.962Z,12.10
2022-12-24T12:09:13.757Z,12.00
2022-12-24T12:11:43.968Z,11.80
2022-12-24T12:14:15.868Z,11.60
2022-12-24T12:19:43.828Z,11.40
2022-12-24T12:22:15.913Z,11.30
2022-12-24T12:24:47.188Z,11.20
2022-12-24T12:27:20.801Z,11.30
2022-12-24T12:29:52.364Z,11.30
2022-12-24T12:32:26.701Z,11.30
2022-12-24T12:35:02.645Z,11.30
2022-12-24T12:37:33.977Z,11.30
2022-12-24T12:40:02.329Z,11.30
2022-12-24T12:42:32.237Z,11.20
2022-12-24T12:45:27.115Z,11.10
2022-12-24T12:48:02.210Z,11.00
2022-12-24T12:50:34.430Z,11.10
2022-12-24T12:53:17.636Z,11.10
2022-12-24T12:55:49.159Z,11.20
2022-12-24T12:58:19.632Z,11.10
2022-12-24T13:00:49.301Z,11.10
2022-12-24T13:03:51.968Z,11.00
2022-12-24T13:06:34.811Z,11.10
2022-12-24T13:09:13.182Z,11.00
2022-12-24T13:11:48.662Z,11.10
2022-12-24T13:14:23.109Z,11.10
2022-12-24T13:17:13.519Z,11.20
2022-12-24T13:19:51.397Z,11.40
2022-12-24T13:22:22.451Z,11.50
2022-12-24T13:24:52.540Z,11.50
2022-12-24T13:27:21.772Z,11.70
2022-12-24T13:29:54.430Z,11.80
2022-12-24T13:32:39.542Z,11.90
2022-12-24T13:35:30.693Z,11.80
2022-12-24T13:38:20.984Z,11.90
2022-12-24T13:40:50.850Z,11.80
2022-12-24T13:43:19.003Z,11.70
2022-12-24T13:45:51.757Z,11.70
2022-12-24T13:48:26.448Z,11.60
2022-12-24T13:50:56.088Z,11.60
2022-12-24T13:53:29.642Z,11.50
2022-12-24T13:56:02.559Z,11.50
2022-12-24T13:58:30.871Z,11.50
2022-12-24T14:01:00.140Z,11.50
2022-12-24T14:03:31.385Z,11.30
2022-12-24T14:06:02.835Z,11.20
2022-12-24T14:08:40.134Z,11.10
2022-12-24T14:11:11.492Z,11.00
2022-12-24T14:13:52.758Z,11.00
2022-12-24T14:16:21.462Z,11.00
2022-12-24T14:18:51.663Z,11.10
2022-12-24T14:21:23.303Z,11.10
2022-12-24T14:23:54.249Z,11.10
2022-12-24T14:26:24.700Z,11.10
2022-12-24T14:28:55.709Z,11.10
2022-12-24T14:31:23.862Z,10.90
2022-12-24T14:33:52.225Z,10.90
2022-12-24T14:36:22.956Z,10.90
2022-12-24T14:38:51.268Z,10.80
2022-12-24T14:41:25.381Z,10.90
2022-12-24T14:43:59.923Z,10.90
2022-12-24T14:46:32.031Z,10.90
2022-12-24T14:49:05.269Z,10.80
2022-12-24T14:51:37.735Z,10.60
2022-12-24T14:54:20.978Z,10.50
2022-12-24T14:56:49.410Z,10.40
2022-12-24T14:59:19.991Z,10.40
2022-12-24T15:01:48.682Z,10.30
2022-12-24T15:04:17.997Z,10.40
2022-12-24T15:06:49.585Z,10.40
2022-12-24T15:09:19.876Z,10.40
2022-12-24T15:11:49.724Z,10.40
2022-12-24T15:14:19.971Z,10.40
2022-12-24T15:16:53.797Z,10.30
2022-12-24T15:19:23.535Z,10.20
2022-12-24T15:21:52.198Z,10.00
2022-12-24T15:24:27.595Z,10.10
2022-12-24T15:26:56.812Z,10.10
2022-12-24T15:29:29.785Z,9.90
2022-12-24T15:31:59.575Z,9.90
2022-12-24T15:34:29.818Z,9.80
2022-12-24T15:37:06.176Z,9.70
2022-12-24T15:39:34.771Z,9.70
2022-12-24T15:42:16.843Z,9.70
2022-12-24T15:44:57.694Z,9.70
2022-12-24T15:47:28.635Z,9.60
2022-12-24T15:49:57.412Z,9.70
2022-12-24T15:52:26.214Z,9.60
2022-12-24T15:54:58.186Z,9.60
2022-12-24T15:57:30.810Z,9.60
2022-12-24T16:00:01.528Z,9.60
2022-12-24T16:02:35.515Z,9.50
2022-12-24T16:05:20.327Z,9.40
2022-12-24T16:08:08.472Z,9.40
2022-12-24T16:10:38.929Z,9.30
2022-12-24T16:13:17.573Z,9.30
2022-12-24T16:16:11.227Z,9.30
2022-12-24T16:18:43.625Z,9.20
2022-12-24T16:21:20.034Z,9.10
2022-12-24T16:23:49.675Z,9.00
2022-12-24T16:26:18.276Z,9.00
2022-12-24T16:28:46.961Z,9.10
2022-12-24T16:31:19.077Z,9.10
2022-12-24T16:33:49.219Z,9.10
2022-12-24T16:36:17.403Z,9.10
2022-12-24T16:39:03.148Z,9.20
2022-12-24T16:41:51.375Z,9.20
2022-12-24T16:44:19.077Z,9.10
2022-12-24T16:46:48.597Z,9.10
2022-12-24T16:49:18.518Z,9.10
2022-12-24T16:51:47.863Z,9.10
2022-12-24T16:54:16.517Z,9.10
2022-12-24T16:56:45.858Z,9.00
2022-12-24T16:59:16.254Z,9.00
2022-12-24T17:01:45.168Z,8.90
2022-12-24T17:04:15.494Z,8.90
2022-12-24T17:06:45.979Z,8.90
2022-12-24T17:09:14.055Z,8.90
2022-12-24T17:11:42.571Z,9.00
2022-12-24T17:14:15.026Z,9.00
2022-12-24T17:16:48.567Z,8.90
2022-12-24T17:19:18.476Z,9.00
2022-12-24T17:21:46.848Z,9.00
2022-12-24T17:24:15.624Z,9.00
2022-12-24T17:26:43.889Z,9.10
2022-12-24T17:29:12.509Z,9.10
2022-12-24T17:31:42.982Z,9.10
2022-12-24T17:34:11.804Z,9.10
2022-12-24T17:36:41.254Z,9.20
2022-12-24T17:39:10.099Z,9.30
2022-12-24T17:41:38.217Z,9.30
2022-12-24T17:44:08.862Z,9.40
2022-12-24T17:46:37.646Z,9.40
2022-12-24T17:49:05.782Z,9.50
2022-12-24T17:51:37.643Z,9.50
2022-12-24T17:54:09.692Z,9.60
2022-12-24T17:56:38.261Z,9.60
2022-12-24T17:59:06.486Z,9.60
2022-12-24T18:01:34.886Z,9.60
2022-12-24T18:04:03.975Z,9.60
2022-12-24T18:06:32.270Z,9.60
2022-12-24T18:09:00.807Z,9.50
2022-12-24T18:11:32.585Z,9.50
2022-12-24T18:14:02.118Z,9.40
2022-12-24T18:16:31.105Z,9.30
2022-12-24T18:19:00.434Z,9.30
2022-12-24T18:21:29.904Z,9.40
2022-12-24T18:23:58.910Z,9.50
2022-12-24T18:26:28.525Z,9.50
2022-12-24T18:28:59.171Z,9.50
2022-12-24T18:31:30.074Z,9.60
2022-12-24T18:33:58.702Z,9.70
2022-12-24T18:36:26.994Z,9.70
2022-12-24T18:38:55.155Z,9.80
2022-12-24T18:41:25.087Z,9.90
2022-12-24T18:43:54.052Z,9.80
2022-12-24T18:46:26.262Z,9.80
2022-12-24T18:48:55.381Z,9.70
2022-12-24T18:51:25.368Z,9.70
2022-12-24T18:53:54.142Z,9.80
2022-12-24T18:56:23.983Z,9.80
2022-12-24T18:58:54.008Z,9.80
2022-12-24T19:01:25.340Z,9.80
2022-12-24T19:03:53.808Z,9.90
2022-12-24T19:06:22.051Z,9.90
2022-12-24T19:08:59.646Z,10.00
2022-12-24T19:11:30.011Z,10.00
2022-12-24T19:13:59.061Z,10.00
2022-12-24T19:16:28.829Z,10.00
2022-12-24T19:18:57.486Z,10.00
2022-12-24T19:21:26.295Z,10.00
2022-12-24T19:23:54.456Z,10.00
2022-12-24T19:26:22.900Z,10.00
2022-12-24T19:28:51.152Z,9.90
2022-12-24T19:31:20.875Z,9.90
2022-12-24T19:33:52.327Z,9.90
2022-12-24T19:36:22.241Z,9.90
2022-12-24T19:38:50.664Z,9.90
2022-12-24T19:41:20.312Z,9.90
2022-12-24T19:46:37.025Z,10.00
2022-12-24T19:49:07.619Z,10.00
2022-12-24T19:51:35.964Z,9.90
2022-12-24T19:54:04.961Z,9.80
2022-12-24T19:56:33.581Z,9.80
2022-12-24T19:59:02.911Z,9.70
2022-12-24T20:01:32.600Z,9.60
2022-12-24T20:04:02.028Z,9.40
2022-12-24T20:06:33.496Z,9.20
2022-12-24T20:09:02.809Z,9.00
2022-12-24T20:11:30.966Z,8.80
2022-12-24T20:13:59.679Z,8.80
2022-12-24T20:16:29.712Z,8.80
2022-12-24T20:18:58.752Z,8.80
2022-12-24T20:21:27.623Z,8.80
2022-12-24T20:23:57.140Z,8.70
2022-12-24T20:26:26.526Z,8.70
2022-12-24T20:28:55.089Z,8.60
2022-12-24T20:31:24.395Z,8.60
2022-12-24T20:33:53.088Z,8.50
2022-12-24T20:36:22.256Z,8.50
2022-12-24T20:38:51.156Z,8.60
2022-12-24T20:41:21.849Z,8.70
2022-12-24T20:43:50.365Z,8.80
2022-12-24T20:46:18.839Z,8.80
2022-12-24T20:48:48.261Z,8.90
2022-12-24T20:51:23.334Z,8.90
2022-12-24T20:53:52.899Z,8.90
2022-12-24T20:56:22.755Z,8.80
2022-12-24T20:58:52.900Z,8.90
2022-12-24T21:01:24.299Z,9.00
2022-12-24T21:03:53.507Z,9.00
2022-12-24T21:06:21.705Z,8.90
2022-12-24T21:08:52.873Z,8.90
2022-12-24T21:11:41.104Z,8.90
2022-12-24T21:14:10.079Z,9.00
2022-12-24T21:16:38.961Z,9.10
2022-12-24T21:19:09.648Z,9.10
2022-12-24T21:21:37.893Z,9.10
2022-12-24T21:24:07.597Z,9.20
2022-12-24T21:26:38.405Z,9.30
2022-12-24T21:29:08.429Z,9.40
2022-12-24T21:31:37.834Z,9.50
2022-12-24T21:34:06.686Z,9.50
2022-12-24T21:36:36.406Z,9.60
2022-12-24T21:39:04.921Z,9.60
2022-12-24T21:41:33.256Z,9.60
2022-12-24T21:44:02.939Z,9.70
2022-12-24T21:46:31.585Z,9.70
2022-12-24T21:49:17.951Z,9.70
2022-12-24T21:51:49.189Z,9.70
2022-12-24T21:54:30.707Z,9.70
2022-12-24T21:57:32.870Z,9.60
2022-12-24T22:00:16.263Z,9.50
2022-12-24T22:02:45.535Z,9.60
2022-12-24T22:05:18.472Z,9.60
2022-12-24T22:08:04.471Z,9.60
2022-12-24T22:10:49.928Z,9.60
2022-12-24T22:13:18.673Z,9.60
2022-12-24T22:15:49.318Z,9.50
2022-12-24T22:18:18.304Z,9.40
2022-12-24T22:20:46.906Z,9.10
2022-12-24T22:23:15.478Z,9.00
2022-12-24T22:25:44.638Z,8.90
2022-12-24T22:28:13.085Z,8.80
2022-12-24T22:30:42.251Z,8.70
2022-12-24T22:33:12.448Z,8.70
2022-12-24T22:35:41.308Z,8.70
2022-12-24T22:38:09.541Z,8.60
2022-12-24T22:40:40.016Z,8.60
2022-12-24T22:43:10.526Z,8.70
2022-12-24T22:45:40.402Z,8.80
2022-12-24T22:48:08.531Z,8.90
2022-12-24T22:50:40.452Z,9.00
2022-12-24T22:53:08.781Z,9.10
2022-12-24T22:55:37.036Z,9.00
2022-12-24T22:58:05.747Z,8.90
2022-12-24T23:00:38.638Z,8.90
2022-12-24T23:03:08.043Z,8.70
2022-12-24T23:05:36.367Z,8.60
2022-12-24T23:08:06.752Z,8.50
2022-12-24T23:10:35.192Z,8.30
2022-12-24T23:13:21.214Z,8.20
2022-12-24T23:15:49.569Z,8.20
2022-12-24T23:18:19.638Z,8.20
2022-12-24T23:20:49.957Z,8.10
2022-12-24T23:23:19.378Z,8.20
2022-12-24T23:25:49.022Z,8.30
2022-12-24T23:28:17.412Z,8.40
2022-12-24T23:30:45.700Z,8.50
2022-12-24T23:33:13.804Z,8.60
2022-12-24T23:35:42.316Z,8.70
2022-12-24T23:38:10.487Z,8.70
2022-12-24T23:40:42.520Z,8.70
2022-12-24T23:43:10.807Z,8.70
2022-12-24T23:45:38.992Z,8.60
2022-12-24T23:48:10.156Z,8.50
2022-12-24T23:50:38.413Z,8.40
2022-12-24T23:53:09.355Z,8.30
2022-12-24T23:55:37.980Z,8.20
2022-12-24T23:58:08.155Z,8.10
